| Date | Time | Temp. (oF) | Dew Point (oF) | Rel. Hum. (%) | Press. (in.) | Wind Dir. | Wind Speed (mph) | Hourly Rainfall (in.) |
|
|---|---|---|---|---|---|---|---|---|---|
| 1 | 10/21 | 00:00 | 49 | 40 | 73 | 29.80 | ESE | 0 | 0.00 |
| 2 | 10/20 | 23:00 | 49 | 41 | 74 | 29.82 | ESE | 0 | 0.00 |
| 3 | 10/20 | 22:00 | 49 | 41 | 76 | 29.81 | ESE | 0 | 0.00 |
| 4 | 10/20 | 21:00 | 50 | 42 | 76 | 29.81 | ESE | 0 | 0.00 |
| 5 | 10/20 | 20:00 | 50 | 45 | 85 | 29.81 | E | 0 | 0.00 |
| 6 | 10/20 | 19:00 | 53 | 46 | 79 | 29.80 | ENE | 0 | 0.00 |
| 7 | 10/20 | 18:00 | 57 | 45 | 66 | 29.79 | ESE | 0 | 0.00 |
| 8 | 10/20 | 17:00 | 60 | 44 | 56 | 29.80 | E | 0 | 0.00 |
| 9 | 10/20 | 16:00 | 60 | 48 | 65 | 29.82 | SE | 0 | 0.00 |
| 10 | 10/20 | 15:00 | 57 | 51 | 82 | 29.84 | NNE | 0 | 0.00 |
| 11 | 10/20 | 14:00 | 55 | 50 | 86 | 29.87 | ESE | 0 | 0.00 |
| 12 | 10/20 | 13:00 | 51 | 50 | 100 | 29.91 | ESE | 0 | 0.00 |
| 13 | 10/20 | 12:00 | 48 | 47 | 98 | 29.94 | E | 0 | 0.00 |
| 14 | 10/20 | 11:00 | 46 | 32 | 60 | 29.96 | E | 0 | 0.00 |
| 15 | 10/20 | 10:00 | 44 | 32 | 65 | 29.97 | WNW | 0 | 0.00 |
| 16 | 10/20 | 09:00 | 42 | 31 | 67 | 29.98 | NNW | 0 | 0.00 |
| 17 | 10/20 | 08:00 | 40 | 31 | 72 | 29.97 | ENE | 0 | 0.00 |
| 18 | 10/20 | 07:00 | 40 | 32 | 74 | 29.97 | NW | 0 | 0.00 |
| 19 | 10/20 | 06:00 | 41 | 33 | 75 | 29.97 | ESE | 0 | 0.00 |
| 20 | 10/20 | 05:00 | 41 | 34 | 76 | 29.97 | E | 0 | 0.00 |
| 21 | 10/20 | 04:00 | 41 | 34 | 77 | 29.97 | ENE | 0 | 0.00 |
| 22 | 10/20 | 03:00 | 41 | 34 | 78 | 29.97 | E | 0 | 0.00 |
| 23 | 10/20 | 02:00 | 42 | 35 | 78 | 29.97 | ENE | 0 | 0.00 |
| 24 | 10/20 | 01:00 | 43 | 37 | 82 | 29.97 | ENE | 0 | 0.00 |